Pagrindinis puslapis
METAR-TAF:

METAR-TAF

Oro uostai :

Aleksandrupolis, Graikija

platuma: 40-51N, ilguma: 025-55E, Aukštis: 7 m

Dabartinis oras

Ataskaita buvo paskelbta 38 minutes, ne 21:20 UTC
Vėjas 3 kt nuo kintamojo kryptimis
Temperatūra 7°C
Drėgmė 87%
Slėgis 1024 hPa
Matomumas 10 km arba daugiau
Mažai debesys ne aukštis 3500 ft

METAR: LGAL 152120Z VRB03KT 9999 FEW035 07/05 Q1024

Laikas: 23:58 (21:58 UTC)

Prognozė

Ataskaita buvo paskelbta 1 valandą ir 58 minutes, ne 20:00 UTC
Prognozė galioja nuo 15 metu 21 UTC su 16 metu 06 UTC
Vėjas 5 kt iš Pietų
Matomumas 10 km arba daugiau
Mažai debesys ne aukštis 3000 ft
Tikimybė 30%
nuo 16 metu 00 UTC su 16 metu 06 UTC
Matomumas: 5000 m
Išsisklaidę debesys ne aukštis 800 ft
rūkana

TAF: LGAL 152000Z 1521/1606 17005KT 9999 FEW030 PROB30 1600/1606 5000 BR SCT008

Orai ataskaitas ir orų prognozės (METAR, TAF).

turimą stotys yra geltonos ir raudonos taškus žemėlapyje.

Perkelti pele per norėdami pamatyti stoties vardą.

Tada spustelėkite, norėdami matyti oro stebėjimo ir prognozės.

Norėdami pakeisti žemėlapį: spustelėkite ant žalios mygtukų su juodo kryžiaus žemyn,; žalią mygtuką su brūkšneliu, jei norite nutolinti; arba žalių rodyklių gretimoms žemėlapius.


METAR-TAF: